Santa María, CA

1:13 AM PDT en Noviembre 01, 2014 (GMT -0700)
Harp Springs | Change Station
CLOSE
Current Station
Estación meteorológica personal
Location: Santa Maria, CA
Altura: 466 ft
Estaciones meteorológicas cercanas
Aviso en curso: Special Statement

Alt 466 ft 34.86 °N, 120.41 °W | Updated 14 minutes ago

Parcialmente nublado
Parcialmente nublado
51.8 ° F
Sensación térmica 51.8 ° F
N
0.0
Viento Variable Viento desde ESE

Hoy
Alta -- | Baja -- ° F
--% Posibilidad de precipitaciones
Ayer
Alta -- | Baja -- ° F
Precip. -- pul
7:22 AM 6:07 PM
Gibosa creciente, 64% visible
Presión 29.83 pul
Visibilidad 10.0 Millas
Nubes Nubes dispersas 4300 ft
Nubes dispersas 7500 ft
Punto de rocío 51 ° F
Humedad 97%
Precipitaciones 0.00 pul
Espesor de la nieve No disponible.
UV 0 de una escala de 12
Polen 4.00 de una escala de 12
Calidad del aire No disponible.
Flu Activity No disponible.
METAR KSMX 010751Z AUTO 18012KT 10SM SCT043 SCT075 14/11 A2982 RMK AO2 SLP099 T01390106 402330133

More Conditions Fewer Conditions

Presión 29.83 pul
Visibilidad 10.0 Millas
Nubes Nubes dispersas 4300 ft
Nubes dispersas 7500 ft
Punto de rocío 51 ° F
Humedad 97%
Precipitaciones 0.00 pul
Espesor de la nieve No disponible.
UV 0 de una escala de 12
Polen 4.00 de una escala de 12
Calidad del aire No disponible.
Flu Activity No disponible.
METAR KSMX 010751Z AUTO 18012KT 10SM SCT043 SCT075 14/11 A2982 RMK AO2 SLP099 T01390106 402330133

More Conditions Fewer Conditions

Nowcast | as of 12:57 am PDT on November 1, 2014

Scattered showers will continue across Santa Barbara County through the early morning hours. Overall...the shower activity is expected to be light...but some isolated moderate showers will be possible at times.

×

10-Day Weather Forecast

Almanac

Astronomía

Nov. 01, 2014 Salida Puesta
Hora real
Crepúsculo civil
Crepúsculo náutico
Crepúsculo astronómico
Luna
Horas de luz
Horas de luz
Tomorrow will be .
, % of the Moon is Illuminated

Extremos de hoy

Máximos del estado Bajos del estado

Community

WunderPhotos

Upload Photos

1,766,866 ¡fotos cargadas!

WunderBlogs® & News

Nearby

Calidad del aire

  Calidad del aire Índice AQ Contaminante
Not available.

Grosos de nieve

Estación Profundido Altura

Actividad de terremotos

Ciudad Distance Mag. Tiempo y dato
Magnitud mínima muestra es 2,5.

Temperaturas de aguas costeras

Lugar Temperatura

Estaciones meteorológicas cercanas